This is the latest recevied weather packets stored in our database for station/object DF7ER-12. If no packets are shown the sender has not sent any weather packets the latest 10 day(s).
| Time | Temp. | Humidity | Pressure | Rain* | Wind** | Luminosity | Snow |
|---|---|---|---|---|---|---|---|
| 1777279269 | 14.44° C | 61% | 1014.4 hPa | - | - | - | - |
| 1777278969 | 16.11° C | 58% | 1014.4 hPa | - | - | - | - |
| 1777278668 | 16.67° C | 59% | 1014.5 hPa | - | - | - | - |
| 1777278103 | 14.44° C | 63% | 1014.5 hPa | - | - | - | - |
| 1777277803 | 14.44° C | 64% | 1014.5 hPa | - | - | - | - |
| 1777277534 | 13.89° C | 65% | 1014.6 hPa | - | - | - | - |
| 1777277203 | 13.89° C | 65% | 1014.6 hPa | - | - | - | - |
| 1777276904 | 15° C | 66% | 1014.7 hPa | - | - | - | - |
| 1777276602 | 13.89° C | 67% | 1014.7 hPa | - | - | - | - |
| 1777276303 | 13.33° C | 67% | 1014.7 hPa | - | - | - | - |
| 1777276002 | 13.33° C | 69% | 1014.7 hPa | - | - | - | - |
| 1777275708 | 12.78° C | 70% | 1014.7 hPa | - | - | - | - |
| 1777275402 | 12.22° C | 70% | 1014.6 hPa | - | - | - | - |
| 1777275102 | 12.22° C | 70% | 1014.6 hPa | - | - | - | - |
| 1777274802 | 12.22° C | 70% | 1014.6 hPa | - | - | - | - |
| 1777274502 | 12.78° C | 70% | 1014.7 hPa | - | - | - | - |
| 1777274203 | 12.22° C | 71% | 1014.6 hPa | - | - | - | - |
| 1777273902 | 11.67° C | 73% | 1014.6 hPa | - | - | - | - |
| 1777273602 | 11.11° C | 73% | 1014.5 hPa | - | - | - | - |
| 1777273303 | 11.11° C | 74% | 1014.6 hPa | - | - | - | - |
| 1777273002 | 10.56° C | 76% | 1014.6 hPa | - | - | - | - |
| 1777272702 | 10.56° C | 77% | 1014.7 hPa | - | - | - | - |
| 1777272402 | 10.56° C | 77% | 1014.7 hPa | - | - | - | - |
| 1777272103 | 10.56° C | 76% | 1014.7 hPa | - | - | - | - |
| 1777271803 | 10.56° C | 76% | 1014.7 hPa | - | - | - | - |
* Rain since midnight (hover to see other rain measurements)
** Current wind speed in m/s (hover to see current wind gust speed)